Time;durP1;ratioP1;P1;durP2;ratioP2;P2;SDS_P1;SDS_P2;PMS_P1;PMS_P2;Temp;Humidity;BMP_temperature;BMP_pressure;BME280_temperature;BME280_humidity;BME280_pressure;Samples;Min_cycle;Max_cycle;Signal;HPM_P1;HPM_P2
2023/08/11 00:00:59;;;;;;;21.70;16.63;;;;;;;17.89;96.42;101901.25;5089790;28;20051;-66
2023/08/11 00:03:24;;;;;;;22.35;16.73;;;;;;;17.89;97.43;101901.25;5091064;28;20111;-66
2023/08/11 00:05:49;;;;;;;21.52;16.90;;;;;;;17.88;97.15;101900.41;5091071;28;20016;-66
2023/08/11 00:08:15;;;;;;;22.08;17.48;;;;;;;17.88;96.98;101894.00;5090865;28;20028;-66
2023/08/11 00:10:40;;;;;;;23.05;17.08;;;;;;;17.77;96.44;101894.34;5090963;28;20499;-66
2023/08/11 00:13:08;;;;;;;22.38;16.98;;;;;;;17.77;97.31;101897.13;5090638;28;20391;-66
2023/08/11 00:15:39;;;;;;;22.55;16.83;;;;;;;17.74;96.84;101897.78;5090970;28;20039;-66
2023/08/11 00:18:05;;;;;;;22.38;17.02;;;;;;;17.67;96.63;101891.88;5090824;28;20032;-67
2023/08/11 00:20:30;;;;;;;21.73;17.00;;;;;;;17.70;96.82;101894.03;5090810;28;20082;-67
2023/08/11 00:22:56;;;;;;;22.30;17.15;;;;;;;17.74;97.81;101895.00;5090560;28;20031;-67
2023/08/11 00:25:22;;;;;;;23.38;17.60;;;;;;;17.74;97.85;101899.78;5090748;28;20036;-67
2023/08/11 00:27:48;;;;;;;22.70;17.92;;;;;;;17.71;97.51;101894.84;5090753;28;20518;-67
2023/08/11 00:30:14;;;;;;;22.85;17.65;;;;;;;17.68;97.39;101898.28;5090812;28;20040;-67
2023/08/11 00:32:39;;;;;;;24.33;18.75;;;;;;;17.60;97.32;101897.16;5090606;28;20059;-68
2023/08/11 00:35:05;;;;;;;22.35;18.02;;;;;;;17.63;97.95;101893.66;5090692;28;20547;-67
2023/08/11 00:37:31;;;;;;;25.08;18.10;;;;;;;17.61;98.60;101893.19;5090589;28;20476;-67
2023/08/11 00:39:58;;;;;;;23.42;18.42;;;;;;;17.51;98.20;101890.72;5090620;28;20115;-67
2023/08/11 00:42:23;;;;;;;23.77;17.98;;;;;;;17.52;98.52;101887.59;5090798;28;20028;-67
2023/08/11 00:44:48;;;;;;;23.42;18.67;;;;;;;17.52;98.19;101892.38;5090553;28;20096;-67
2023/08/11 00:47:15;;;;;;;23.48;17.92;;;;;;;17.51;99.05;101891.53;5090655;28;20128;-67
2023/08/11 00:49:41;;;;;;;22.58;18.60;;;;;;;17.47;99.10;101884.97;5093683;28;20031;-67
2023/08/11 00:52:06;;;;;;;22.77;18.45;;;;;;;17.44;99.08;101891.22;5094424;28;20036;-67
2023/08/11 00:54:32;;;;;;;23.40;18.48;;;;;;;17.38;98.74;101884.94;5094648;28;20081;-67
2023/08/11 00:56:57;;;;;;;26.25;21.55;;;;;;;17.33;99.18;101873.09;5094414;28;20082;-67
2023/08/11 00:59:23;;;;;;;26.00;20.75;;;;;;;17.28;99.41;101869.31;5094479;28;20112;-67
2023/08/11 01:01:48;;;;;;;26.25;20.75;;;;;;;17.29;99.95;101878.53;5094332;28;20028;-67
2023/08/11 01:04:14;;;;;;;24.25;20.20;;;;;;;17.25;100.00;101867.16;5094260;28;20052;-67
2023/08/11 01:06:41;;;;;;;24.20;20.23;;;;;;;17.22;100.00;101862.22;5092727;28;20031;-67
2023/08/11 01:09:39;;;;;;;24.48;19.50;;;;;;;17.14;99.94;101863.84;5094113;28;20028;-67
2023/08/11 01:12:07;;;;;;;25.45;20.33;;;;;;;17.08;99.94;101867.16;5090822;28;20039;-67
2023/08/11 01:14:52;;;;;;;23.33;19.70;;;;;;;17.05;100.00;101865.00;5093936;28;20115;-67
2023/08/11 01:17:18;;;;;;;23.30;19.38;;;;;;;17.02;100.00;101860.03;5094024;28;20808;-67
2023/08/11 01:19:45;;;;;;;24.70;19.63;;;;;;;17.02;100.00;101858.09;5094082;28;20032;-67
2023/08/11 01:22:15;;;;;;;24.95;19.90;;;;;;;16.90;100.00;101846.69;5092469;28;20032;-67
2023/08/11 01:24:42;;;;;;;24.98;20.73;;;;;;;16.93;100.00;101851.63;5093963;28;20024;-67
2023/08/11 01:27:08;;;;;;;26.08;20.48;;;;;;;16.94;100.00;101844.91;5093738;28;20073;-67
2023/08/11 01:29:34;;;;;;;24.30;20.25;;;;;;;16.89;100.00;101842.22;5093797;28;20052;-67
2023/08/11 01:31:59;;;;;;;24.13;20.00;;;;;;;16.83;100.00;101841.56;5093700;28;20111;-67
2023/08/11 01:34:24;;;;;;;24.02;20.48;;;;;;;16.83;100.00;101842.41;5093765;28;20024;-67
2023/08/11 01:36:57;;;;;;;23.63;20.90;;;;;;;16.80;100.00;101845.81;5093694;28;20158;-67
2023/08/11 01:39:22;;;;;;;25.38;20.90;;;;;;;16.79;100.00;101843.38;5093722;28;20042;-67
2023/08/11 01:41:48;;;;;;;26.15;21.33;;;;;;;16.65;100.00;101837.91;5093422;28;20028;-67
2023/08/11 01:44:13;;;;;;;25.80;20.95;;;;;;;16.68;100.00;101840.88;5093401;28;20082;-67
2023/08/11 01:46:40;;;;;;;25.52;21.10;;;;;;;16.67;100.00;101844.81;5093539;28;20032;-67
2023/08/11 01:49:06;;;;;;;26.55;21.23;;;;;;;16.68;100.00;101849.25;5093380;28;20048;-67
2023/08/11 01:51:32;;;;;;;26.63;21.42;;;;;;;16.63;100.00;101846.59;5093311;28;20488;-67
2023/08/11 01:53:57;;;;;;;26.02;21.55;;;;;;;16.61;100.00;101846.13;5093348;28;20028;-67
2023/08/11 01:56:24;;;;;;;27.10;22.45;;;;;;;16.55;100.00;101844.59;5093333;28;20573;-67
2023/08/11 01:58:50;;;;;;;25.33;21.73;;;;;;;16.53;100.00;101850.50;5093113;28;20028;-67
2023/08/11 02:01:15;;;;;;;26.42;21.98;;;;;;;16.48;100.00;101847.84;5093175;28;20640;-67
2023/08/11 02:03:40;;;;;;;25.35;21.67;;;;;;;16.47;100.00;101848.19;5093036;28;20043;-67
2023/08/11 02:06:05;;;;;;;26.42;22.42;;;;;;;16.41;100.00;101849.47;5093154;28;20445;-67
2023/08/11 02:08:31;;;;;;;26.98;22.27;;;;;;;16.41;100.00;101836.31;5093025;28;20036;-67
2023/08/11 02:10:57;;;;;;;25.90;22.33;;;;;;;16.34;100.00;101838.75;5093053;28;20027;-67
2023/08/11 02:13:23;;;;;;;26.02;22.60;;;;;;;16.32;100.00;101835.47;5092861;28;20092;-67
2023/08/11 02:15:48;;;;;;;26.00;21.75;;;;;;;16.31;100.00;101840.22;5092988;28;20023;-67
2023/08/11 02:18:13;;;;;;;26.50;22.92;;;;;;;16.27;100.00;101835.63;5092887;28;20520;-67
2023/08/11 02:20:39;;;;;;;25.73;22.92;;;;;;;16.29;100.00;101831.34;5092866;28;20031;-67
2023/08/11 02:23:04;;;;;;;26.60;22.52;;;;;;;16.29;100.00;101827.75;5092848;28;20039;-68
2023/08/11 02:25:29;;;;;;;25.80;22.70;;;;;;;16.28;100.00;101820.50;5092726;28;20032;-67
2023/08/11 02:27:55;;;;;;;27.05;23.48;;;;;;;16.28;100.00;101832.50;5092932;28;20031;-67
2023/08/11 02:30:22;;;;;;;26.85;23.13;;;;;;;16.24;100.00;101819.50;5092845;28;20040;-67
2023/08/11 02:32:47;;;;;;;26.05;22.70;;;;;;;16.22;100.00;101811.44;5092725;28;20028;-67
2023/08/11 02:35:13;;;;;;;28.08;22.77;;;;;;;16.14;100.00;101815.84;5092479;28;20081;-67
2023/08/11 02:37:39;;;;;;;26.88;23.20;;;;;;;16.15;100.00;101822.25;5092483;28;20063;-67
2023/08/11 02:40:08;;;;;;;26.42;23.50;;;;;;;16.12;100.00;101826.50;5091210;28;20051;-67
2023/08/11 02:42:35;;;;;;;27.30;23.15;;;;;;;16.06;100.00;101823.00;5092320;28;20487;-68
2023/08/11 02:45:00;;;;;;;27.42;23.42;;;;;;;16.01;100.00;101828.75;5092578;28;20118;-68
2023/08/11 02:47:25;;;;;;;28.15;22.75;;;;;;;15.94;100.00;101833.13;5092341;28;20111;-67
2023/08/11 02:49:51;;;;;;;27.42;23.23;;;;;;;15.92;100.00;101827.88;5092376;28;20024;-67
2023/08/11 02:52:16;;;;;;;25.88;23.08;;;;;;;15.84;100.00;101832.25;5092249;28;20468;-67
2023/08/11 02:54:41;;;;;;;27.83;23.77;;;;;;;15.81;100.00;101827.28;5092185;28;20028;-67
2023/08/11 02:57:06;;;;;;;27.23;23.33;;;;;;;15.77;100.00;101828.25;5092129;28;20471;-67
2023/08/11 02:59:32;;;;;;;27.73;23.45;;;;;;;15.71;100.00;101833.13;5092083;28;20043;-67
2023/08/11 03:01:57;;;;;;;25.92;22.65;;;;;;;15.66;100.00;101838.81;5092053;28;20036;-67
2023/08/11 03:04:23;;;;;;;26.95;23.08;;;;;;;15.60;100.00;101840.91;5091971;28;20028;-67
2023/08/11 03:06:48;;;;;;;26.58;23.10;;;;;;;15.54;100.00;101836.59;5091919;28;20027;-67
2023/08/11 03:09:14;;;;;;;27.33;24.33;;;;;;;15.49;100.00;101836.72;5091938;28;20032;-67
2023/08/11 03:11:40;;;;;;;27.70;24.23;;;;;;;15.49;100.00;101833.94;5091385;28;20038;-67
2023/08/11 03:14:05;;;;;;;28.58;24.42;;;;;;;15.48;100.00;101832.28;5091835;28;20024;-68
2023/08/11 03:16:32;;;;;;;27.80;24.50;;;;;;;15.51;100.00;101828.84;5091836;28;20072;-67
2023/08/11 03:18:57;;;;;;;28.40;24.60;;;;;;;15.45;100.00;101822.56;5091960;28;20032;-67
2023/08/11 03:21:23;;;;;;;28.45;24.17;;;;;;;15.42;100.00;101826.00;5091859;28;20028;-67
2023/08/11 03:23:48;;;;;;;28.38;25.27;;;;;;;15.36;100.00;101822.50;5091732;28;20094;-67
2023/08/11 03:26:13;;;;;;;28.08;24.95;;;;;;;15.26;100.00;101825.53;5091607;28;20499;-67
2023/08/11 03:28:39;;;;;;;28.38;24.88;;;;;;;15.15;100.00;101815.75;5091469;28;20059;-67
2023/08/11 03:31:05;;;;;;;29.75;25.52;;;;;;;15.13;100.00;101821.66;5091693;28;20061;-67
2023/08/11 03:33:30;;;;;;;27.00;23.90;;;;;;;15.14;100.00;101826.09;5091525;28;20074;-68
2023/08/11 03:35:56;;;;;;;29.17;25.63;;;;;;;15.17;100.00;101819.06;5091414;28;20440;-68
2023/08/11 03:38:21;;;;;;;28.30;25.25;;;;;;;15.19;100.00;101819.56;5091371;28;20491;-67
2023/08/11 03:40:47;;;;;;;28.58;25.20;;;;;;;15.09;100.00;101809.47;5091252;28;20535;-67
2023/08/11 03:43:12;;;;;;;28.17;25.17;;;;;;;15.16;100.00;101826.59;5091240;28;20388;-68
2023/08/11 03:45:38;;;;;;;28.00;24.58;;;;;;;15.19;100.00;101828.75;5091326;28;20118;-67
2023/08/11 03:48:03;;;;;;;28.80;25.33;;;;;;;15.18;100.00;101823.50;5091227;28;20464;-67
2023/08/11 03:50:29;;;;;;;28.42;25.33;;;;;;;15.18;100.00;101820.72;5091213;28;20372;-67
2023/08/11 03:52:54;;;;;;;29.38;25.45;;;;;;;15.19;100.00;101816.78;5091031;28;20395;-68
2023/08/11 03:55:20;;;;;;;29.10;25.77;;;;;;;15.13;100.00;101816.88;5091212;28;20119;-67
2023/08/11 03:57:45;;;;;;;28.90;25.80;;;;;;;15.10;100.00;101820.31;5091185;28;20028;-68
2023/08/11 04:00:15;;;;;;;29.15;25.95;;;;;;;15.05;100.00;101819.63;5089789;28;20396;-67
2023/08/11 04:02:43;;;;;;;28.55;25.45;;;;;;;14.95;100.00;101810.34;5091255;28;20057;-68
2023/08/11 04:05:10;;;;;;;27.85;24.85;;;;;;;14.97;100.00;101812.81;5091137;28;20028;-68
2023/08/11 04:07:35;;;;;;;30.17;26.38;;;;;;;14.85;100.00;101806.94;5091013;28;20031;-67
2023/08/11 04:10:01;;;;;;;29.25;25.85;;;;;;;14.80;100.00;101802.31;5090799;28;20028;-67
2023/08/11 04:12:26;;;;;;;29.83;26.45;;;;;;;14.82;100.00;101809.22;5090546;28;20020;-67
2023/08/11 04:14:51;;;;;;;29.08;25.67;;;;;;;14.88;100.00;101811.91;5090670;28;20032;-67
2023/08/11 04:17:17;;;;;;;30.20;26.73;;;;;;;14.90;100.00;101807.66;5090706;28;20226;-68
2023/08/11 04:19:43;;;;;;;30.65;27.35;;;;;;;14.88;100.00;101809.91;5090656;28;20117;-67
2023/08/11 04:22:08;;;;;;;31.92;28.52;;;;;;;14.92;100.00;101821.28;5090817;28;20028;-68
2023/08/11 04:24:35;;;;;;;32.20;28.80;;;;;;;14.84;100.00;101810.84;5093718;28;20377;-67
2023/08/11 04:27:00;;;;;;;31.02;27.67;;;;;;;14.79;100.00;101814.56;5095144;28;20024;-67
2023/08/11 04:29:26;;;;;;;31.00;27.80;;;;;;;14.80;100.00;101810.66;5094755;28;20506;-68
2023/08/11 04:31:51;;;;;;;29.92;26.73;;;;;;;14.80;100.00;101805.94;5094837;28;20120;-67
2023/08/11 04:34:17;;;;;;;29.52;25.65;;;;;;;14.81;100.00;101815.94;5094937;28;20138;-67
2023/08/11 04:36:42;;;;;;;31.00;26.95;;;;;;;14.82;100.00;101813.97;5094869;28;20059;-67
2023/08/11 04:39:08;;;;;;;30.75;27.52;;;;;;;14.85;100.00;101810.56;5094825;28;20520;-67
2023/08/11 04:41:33;;;;;;;29.48;26.27;;;;;;;14.83;100.00;101810.03;5094728;28;20039;-67
2023/08/11 04:43:59;;;;;;;29.67;26.00;;;;;;;14.82;100.00;101811.19;5094673;28;20024;-67
2023/08/11 04:46:25;;;;;;;30.63;26.52;;;;;;;14.83;100.00;101810.03;5094500;28;20345;-68
2023/08/11 04:48:50;;;;;;;31.17;27.63;;;;;;;14.87;100.00;101807.47;5094733;28;20040;-67
2023/08/11 04:51:15;;;;;;;29.35;25.10;;;;;;;14.91;100.00;101809.31;5094580;28;20499;-68
2023/08/11 04:53:41;;;;;;;31.33;25.33;;;;;;;14.91;100.00;101811.28;5094418;28;20479;-67
2023/08/11 04:56:06;;;;;;;30.08;26.70;;;;;;;14.95;100.00;101798.34;5094229;28;20036;-67
2023/08/11 04:58:33;;;;;;;29.02;25.13;;;;;;;15.03;100.00;101807.94;5094441;28;20107;-67
2023/08/11 05:00:59;;;;;;;28.75;25.23;;;;;;;15.10;100.00;101798.03;5094286;28;20169;-68
2023/08/11 05:03:25;;;;;;;29.42;26.08;;;;;;;15.18;100.00;101796.44;5094385;28;20036;-67
2023/08/11 05:05:51;;;;;;;29.65;26.15;;;;;;;15.19;100.00;101792.50;5094189;28;20026;-67
2023/08/11 05:08:16;;;;;;;29.58;25.45;;;;;;;15.29;100.00;101794.25;5094138;28;20103;-67
2023/08/11 05:10:41;;;;;;;31.63;24.85;;;;;;;15.33;100.00;101784.09;5094136;28;20495;-67
2023/08/11 05:13:07;;;;;;;28.20;25.00;;;;;;;15.43;100.00;101783.84;5094095;28;20111;-68
2023/08/11 05:15:33;;;;;;;29.13;25.98;;;;;;;15.49;100.00;101786.53;5094147;28;20032;-68
2023/08/11 05:17:58;;;;;;;27.88;24.42;;;;;;;15.56;100.00;101787.72;5094112;28;20432;-67
2023/08/11 05:20:24;;;;;;;28.38;25.38;;;;;;;15.62;100.00;101788.41;5093990;28;20038;-67
2023/08/11 05:22:52;;;;;;;28.98;25.88;;;;;;;15.67;100.00;101790.25;5093895;28;20032;-67
2023/08/11 05:25:17;;;;;;;29.90;26.38;;;;;;;15.69;100.00;101786.00;5094056;28;20029;-67
2023/08/11 05:27:43;;;;;;;31.13;25.58;;;;;;;15.78;100.00;101788.00;5093821;28;20028;-67
2023/08/11 05:30:09;;;;;;;30.00;24.88;;;;;;;15.82;100.00;101789.03;5093852;28;20059;-68
2023/08/11 05:32:35;;;;;;;28.23;23.75;;;;;;;15.87;100.00;101775.00;5093896;28;20020;-67
2023/08/11 05:35:00;;;;;;;28.92;24.52;;;;;;;15.95;100.00;101779.81;5093189;28;20114;-67
2023/08/11 05:37:26;;;;;;;30.42;24.65;;;;;;;16.02;100.00;101782.09;5093653;28;20024;-67
2023/08/11 05:39:52;;;;;;;29.83;24.23;;;;;;;16.07;100.00;101781.97;5093470;28;20064;-67
2023/08/11 05:42:18;;;;;;;28.65;25.05;;;;;;;16.08;100.00;101783.63;5093397;28;20035;-68
2023/08/11 05:44:43;;;;;;;27.67;24.67;;;;;;;16.08;100.00;101780.84;5093475;28;20051;-68
2023/08/11 05:47:09;;;;;;;29.55;25.35;;;;;;;16.20;100.00;101774.66;5093411;28;20488;-68
2023/08/11 05:49:34;;;;;;;27.70;23.50;;;;;;;16.25;100.00;101779.28;5093028;28;20073;-68
2023/08/11 05:51:59;;;;;;;30.50;25.85;;;;;;;16.33;100.00;101775.69;5092644;28;20024;-67
2023/08/11 05:54:25;;;;;;;28.80;23.92;;;;;;;16.41;100.00;101779.66;5093320;28;20050;-67
2023/08/11 05:56:52;;;;;;;30.02;25.13;;;;;;;16.45;100.00;101777.84;5093235;28;20460;-68
2023/08/11 05:59:18;;;;;;;29.98;25.33;;;;;;;16.50;100.00;101784.13;5093274;28;20410;-67
2023/08/11 06:01:44;;;;;;;29.45;25.40;;;;;;;16.57;100.00;101782.84;5093125;28;20028;-68
2023/08/11 06:04:09;;;;;;;31.00;25.13;;;;;;;16.62;100.00;101782.66;5092965;28;20028;-68
2023/08/11 06:06:34;;;;;;;27.95;24.33;;;;;;;16.64;100.00;101781.19;5092943;28;20082;-68
2023/08/11 06:09:00;;;;;;;29.45;25.20;;;;;;;16.71;100.00;101782.72;5092859;28;20044;-67
2023/08/11 06:11:25;;;;;;;28.52;24.60;;;;;;;16.78;100.00;101772.66;5092863;28;20024;-67
2023/08/11 06:13:51;;;;;;;29.20;24.25;;;;;;;16.83;100.00;101780.91;5092877;28;20055;-67
2023/08/11 06:16:16;;;;;;;30.90;23.65;;;;;;;16.89;100.00;101781.59;5092698;28;20024;-68
2023/08/11 06:18:42;;;;;;;29.40;24.75;;;;;;;16.95;100.00;101780.31;5092846;28;20451;-68
2023/08/11 06:21:07;;;;;;;27.63;23.08;;;;;;;17.03;100.00;101773.09;5092528;28;20093;-68
2023/08/11 06:23:33;;;;;;;28.13;23.23;;;;;;;17.09;100.00;101774.56;5092618;28;20035;-67
2023/08/11 06:25:58;;;;;;;28.80;22.67;;;;;;;17.16;100.00;101779.66;5092526;28;20074;-68
2023/08/11 06:28:23;;;;;;;27.02;22.80;;;;;;;17.25;100.00;101780.47;5092419;28;20028;-67
2023/08/11 06:30:49;;;;;;;28.35;22.63;;;;;;;17.35;100.00;101784.09;5092632;28;20024;-68
2023/08/11 06:33:15;;;;;;;27.77;22.58;;;;;;;17.41;100.00;101783.59;5092387;28;20459;-68
2023/08/11 06:35:42;;;;;;;27.77;22.42;;;;;;;17.45;100.00;101786.56;5092511;28;20206;-67
2023/08/11 06:38:08;;;;;;;27.58;22.08;;;;;;;17.56;100.00;101782.28;5092593;28;20032;-67
2023/08/11 06:40:34;;;;;;;26.85;22.40;;;;;;;17.61;100.00;101775.69;5092173;28;20387;-68
2023/08/11 06:43:00;;;;;;;26.95;22.45;;;;;;;17.71;100.00;101785.69;5090721;28;20028;-67
2023/08/11 06:45:25;;;;;;;28.55;23.58;;;;;;;17.77;100.00;101787.16;5091896;28;20035;-68
2023/08/11 06:47:51;;;;;;;26.88;23.05;;;;;;;17.83;100.00;101793.41;5091665;28;20024;-67
2023/08/11 06:50:17;;;;;;;27.63;22.63;;;;;;;17.90;100.00;101791.75;5090638;28;20020;-68
2023/08/11 06:52:42;;;;;;;28.08;23.15;;;;;;;17.99;100.00;101799.31;5092045;28;20036;-67
2023/08/11 06:55:07;;;;;;;27.48;23.20;;;;;;;18.08;100.00;101794.50;5091967;28;20028;-67
2023/08/11 06:57:33;;;;;;;29.10;23.60;;;;;;;18.17;100.00;101795.31;5092112;28;20487;-68
2023/08/11 06:59:58;;;;;;;28.45;23.08;;;;;;;18.28;100.00;101801.34;5092038;28;20119;-68
2023/08/11 07:02:23;;;;;;;28.52;23.50;;;;;;;18.35;100.00;101801.66;5091963;28;20088;-68
2023/08/11 07:04:49;;;;;;;28.23;22.48;;;;;;;18.44;100.00;101809.22;5091999;28;20046;-67
2023/08/11 07:07:14;;;;;;;28.58;24.10;;;;;;;18.48;100.00;101802.59;5091795;28;20028;-68
2023/08/11 07:09:40;;;;;;;26.48;22.77;;;;;;;18.54;100.00;101806.84;5091900;28;20476;-68
2023/08/11 07:12:06;;;;;;;26.27;22.45;;;;;;;18.63;100.00;101809.59;5091687;28;20118;-67
2023/08/11 07:14:31;;;;;;;26.10;21.63;;;;;;;18.71;100.00;101807.91;5091796;28;20028;-67
2023/08/11 07:16:57;;;;;;;25.92;21.55;;;;;;;18.78;100.00;101804.56;5091681;28;20080;-68
2023/08/11 07:19:23;;;;;;;25.83;21.48;;;;;;;18.91;100.00;101809.09;5091568;28;20110;-68
2023/08/11 07:21:48;;;;;;;25.90;21.52;;;;;;;19.01;100.00;101803.13;5091612;28;20032;-68
2023/08/11 07:24:14;;;;;;;27.60;21.83;;;;;;;19.09;99.55;101803.41;5091669;28;20490;-68
2023/08/11 07:26:39;;;;;;;25.55;20.33;;;;;;;19.20;99.34;101801.00;5091506;28;20024;-68
2023/08/11 07:29:05;;;;;;;26.65;21.92;;;;;;;19.25;98.61;101801.63;5090030;28;20438;-68
2023/08/11 07:31:30;;;;;;;26.35;21.00;;;;;;;19.34;98.63;101804.38;5091472;28;20472;-67
2023/08/11 07:33:56;;;;;;;24.65;21.42;;;;;;;19.42;97.51;101803.47;5091324;28;20410;-68
2023/08/11 07:36:22;;;;;;;25.83;21.15;;;;;;;19.52;97.44;101804.19;5091328;28;20016;-68
2023/08/11 07:38:47;;;;;;;26.38;21.52;;;;;;;19.60;97.64;101806.91;5091324;28;20048;-68
2023/08/11 07:41:13;;;;;;;25.95;21.23;;;;;;;19.73;97.20;101806.97;5089634;28;20479;-68
2023/08/11 07:43:38;;;;;;;25.45;21.60;;;;;;;19.82;96.74;101806.88;5091214;28;20036;-68
2023/08/11 07:46:03;;;;;;;27.42;21.75;;;;;;;19.93;97.51;101805.31;5091273;28;20028;-68
2023/08/11 07:48:29;;;;;;;24.88;20.52;;;;;;;20.07;97.12;101805.00;5091297;28;20031;-68
2023/08/11 07:50:54;;;;;;;25.23;20.25;;;;;;;20.19;97.09;101805.00;5091204;28;20081;-68
2023/08/11 07:53:19;;;;;;;26.30;21.08;;;;;;;20.30;96.40;101813.81;5091083;28;20074;-68
2023/08/11 07:55:45;;;;;;;25.42;20.85;;;;;;;20.44;96.23;101815.44;5091115;28;20024;-68
2023/08/11 07:58:10;;;;;;;24.20;19.83;;;;;;;20.47;95.45;101795.06;5090972;28;20024;-68
2023/08/11 08:00:35;;;;;;;24.23;19.17;;;;;;;20.57;92.30;101812.28;5091184;28;20032;-68
2023/08/11 08:03:01;;;;;;;25.55;18.70;;;;;;;20.67;92.08;101808.19;5091120;28;20028;-68
2023/08/11 08:05:26;;;;;;;24.40;18.73;;;;;;;20.78;91.12;101811.34;5091029;28;20020;-68
2023/08/11 08:07:51;;;;;;;24.27;18.00;;;;;;;20.85;90.78;101810.78;5091010;28;20524;-68
2023/08/11 08:10:20;;;;;;;24.35;18.45;;;;;;;20.96;91.35;101814.75;5089481;28;20077;-68
2023/08/11 08:12:45;;;;;;;22.02;17.42;;;;;;;21.04;90.22;101818.56;5091060;28;20020;-68
2023/08/11 08:15:11;;;;;;;22.50;18.08;;;;;;;21.16;90.73;101824.19;5090815;28;20036;-68
2023/08/11 08:17:38;;;;;;;22.48;17.65;;;;;;;21.22;88.26;101821.94;5090703;28;20032;-68
2023/08/11 08:20:05;;;;;;;23.38;18.27;;;;;;;21.32;88.47;101814.97;5090739;28;20024;-68
2023/08/11 08:22:32;;;;;;;22.60;18.00;;;;;;;21.43;88.23;101812.50;5090797;28;20056;-68
2023/08/11 08:24:58;;;;;;;22.92;18.63;;;;;;;21.55;89.72;101812.44;5090931;28;20028;-68
2023/08/11 08:27:26;;;;;;;22.10;17.58;;;;;;;21.62;87.23;101812.69;5090835;28;20387;-68
2023/08/11 08:29:52;;;;;;;22.27;17.02;;;;;;;21.72;87.14;101811.34;5090307;28;20048;-67
2023/08/11 08:32:21;;;;;;;23.60;17.10;;;;;;;21.85;87.25;101809.28;5090598;28;20139;-68
2023/08/11 08:34:48;;;;;;;22.98;16.50;;;;;;;21.99;87.36;101805.22;5090793;28;20024;-68
2023/08/11 08:37:16;;;;;;;22.30;16.42;;;;;;;22.09;86.37;101807.50;5091125;28;20017;-68
2023/08/11 08:39:43;;;;;;;21.33;15.95;;;;;;;22.23;85.30;101810.66;5089321;28;20119;-68
2023/08/11 08:42:09;;;;;;;22.40;16.10;;;;;;;22.30;84.02;101801.59;5090643;28;20020;-68
2023/08/11 08:44:35;;;;;;;22.15;16.20;;;;;;;22.44;85.58;101815.25;5089154;28;20040;-68
2023/08/11 08:47:05;;;;;;;21.70;16.30;;;;;;;22.52;82.59;101808.59;5090480;28;20160;-68
2023/08/11 08:49:30;;;;;;;20.60;14.98;;;;;;;22.60;83.25;101812.41;5090614;28;20918;-68
2023/08/11 08:52:00;;;;;;;21.60;15.68;;;;;;;22.76;84.23;101809.56;5090324;28;20119;-68
2023/08/11 08:54:27;;;;;;;21.10;15.32;;;;;;;22.92;83.11;101808.72;5090502;28;20032;-68
2023/08/11 08:56:54;;;;;;;21.25;14.80;;;;;;;23.03;81.60;101806.94;5090335;28;20028;-68
2023/08/11 08:59:20;;;;;;;20.75;14.30;;;;;;;23.17;80.72;101812.09;5090383;28;20024;-68
2023/08/11 09:01:46;;;;;;;20.45;13.95;;;;;;;23.33;78.75;101806.41;5090317;28;20365;-68
2023/08/11 09:04:11;;;;;;;20.38;13.93;;;;;;;23.50;79.54;101814.44;5090419;28;20032;-68
2023/08/11 09:06:38;;;;;;;21.55;14.43;;;;;;;23.60;78.47;101793.22;5090310;28;20089;-68
2023/08/11 09:09:05;;;;;;;19.90;14.27;;;;;;;23.78;77.00;101801.22;5090693;28;20035;-68
2023/08/11 09:11:30;;;;;;;19.90;13.85;;;;;;;23.89;75.94;101809.94;5094127;28;20024;-68
2023/08/11 09:14:03;;;;;;;19.73;14.38;;;;;;;24.00;76.66;101799.66;5094075;28;20111;-68
2023/08/11 09:16:28;;;;;;;20.02;13.60;;;;;;;23.97;71.60;101804.03;5094240;28;20039;-68
2023/08/11 09:18:54;;;;;;;18.20;13.20;;;;;;;24.03;72.42;101801.72;5094248;28;20028;-69
2023/08/11 09:21:24;;;;;;;19.77;12.60;;;;;;;24.12;70.11;101799.47;5094057;28;20130;-68
2023/08/11 09:23:52;;;;;;;20.70;13.38;;;;;;;24.17;70.11;101795.50;5094143;28;20478;-69
2023/08/11 09:26:20;;;;;;;21.23;13.25;;;;;;;24.41;69.94;101805.59;5093964;28;20337;-68
2023/08/11 09:28:45;;;;;;;21.17;13.20;;;;;;;24.55;68.84;101804.22;5093798;28;20093;-68
2023/08/11 09:31:12;;;;;;;19.67;12.73;;;;;;;24.72;68.76;101811.34;5093940;28;20036;-68
2023/08/11 09:33:37;;;;;;;22.65;13.38;;;;;;;24.86;68.09;101797.44;5093785;28;20024;-68
2023/08/11 09:36:03;;;;;;;18.52;12.57;;;;;;;25.01;67.68;101797.63;5092368;28;20164;-68
2023/08/11 09:38:29;;;;;;;18.73;12.63;;;;;;;25.16;67.59;101790.97;5092807;28;20043;-70
2023/08/11 09:40:59;;;;;;;19.23;12.65;;;;;;;25.35;66.22;101792.81;5093793;28;20024;-68
2023/08/11 09:43:24;;;;;;;19.42;12.40;;;;;;;25.65;66.93;101796.81;5093703;28;20032;-68
2023/08/11 09:45:51;;;;;;;17.95;12.05;;;;;;;25.84;64.67;101795.81;5093771;28;20069;-68
2023/08/11 09:48:17;;;;;;;18.60;11.90;;;;;;;26.10;62.73;101792.03;5093776;28;20380;-68
2023/08/11 09:50:44;;;;;;;18.13;12.05;;;;;;;26.29;62.17;101790.19;5093628;28;20033;-68
2023/08/11 09:53:10;;;;;;;18.85;12.50;;;;;;;26.43;61.34;101795.94;5093445;28;20036;-68
2023/08/11 09:55:39;;;;;;;19.67;12.63;;;;;;;26.44;61.23;101793.94;5093567;28;20449;-69
2023/08/11 09:58:06;;;;;;;19.08;11.93;;;;;;;26.37;61.38;101789.03;5093401;28;20047;-68
2023/08/11 10:00:32;;;;;;;18.40;11.90;;;;;;;26.51;62.99;101787.47;5093195;28;20372;-68
2023/08/11 10:03:09;;;;;;;17.67;11.73;;;;;;;26.58;62.33;101791.19;5093277;28;20032;-69
2023/08/11 10:05:39;;;;;;;18.92;12.38;;;;;;;26.58;60.80;101793.22;5093267;28;20081;-68
2023/08/11 10:08:08;;;;;;;19.42;12.10;;;;;;;26.55;60.56;101783.47;5093207;28;20115;-68
2023/08/11 10:10:37;;;;;;;18.88;11.90;;;;;;;26.60;61.26;101793.63;5093057;28;20043;-68
2023/08/11 10:13:07;;;;;;;18.13;11.80;;;;;;;26.66;62.20;101788.41;5093012;28;20028;-68
2023/08/11 10:15:34;;;;;;;17.85;11.43;;;;;;;26.85;61.93;101787.34;5093009;28;20020;-69
2023/08/11 10:18:01;;;;;;;17.73;11.48;;;;;;;26.93;61.42;101795.50;5092877;28;20130;-68
2023/08/11 10:20:26;;;;;;;18.92;11.48;;;;;;;27.03;60.40;101807.31;5092248;28;20111;-69
2023/08/11 10:22:52;;;;;;;18.05;11.77;;;;;;;27.05;60.40;101796.38;5092244;28;20107;-68
2023/08/11 10:25:18;;;;;;;17.15;11.13;;;;;;;27.08;59.05;101795.56;5092759;28;20024;-68
2023/08/11 10:27:45;;;;;;;19.23;11.90;;;;;;;27.22;60.92;101800.50;5092702;28;20039;-68
2023/08/11 10:30:13;;;;;;;18.58;11.85;;;;;;;27.09;57.72;101780.97;5092534;28;20485;-68
2023/08/11 10:32:38;;;;;;;17.20;11.70;;;;;;;27.11;59.10;101776.91;5092785;28;20388;-68
2023/08/11 10:35:13;;;;;;;18.52;11.23;;;;;;;27.25;60.44;101785.53;5092568;28;20036;-69
2023/08/11 10:37:38;;;;;;;18.40;11.52;;;;;;;27.39;59.57;101782.72;5092627;28;20024;-68
2023/08/11 10:40:10;;;;;;;17.05;11.55;;;;;;;27.35;57.88;101783.91;5092484;28;20059;-68
2023/08/11 10:42:36;;;;;;;18.90;11.63;;;;;;;27.47;59.79;101780.75;5092723;28;20448;-70
2023/08/11 10:45:09;;;;;;;17.33;11.15;;;;;;;27.53;59.58;101776.28;5092475;28;20416;-68
2023/08/11 10:47:36;;;;;;;18.67;11.10;;;;;;;27.50;57.75;101773.44;5092486;28;20360;-68
2023/08/11 10:50:02;;;;;;;16.63;11.07;;;;;;;27.54;58.11;101785.63;5092191;28;20274;-68
2023/08/11 10:52:29;;;;;;;16.67;11.10;;;;;;;27.52;56.00;101786.03;5092197;28;20031;-69
2023/08/11 10:54:59;;;;;;;16.50;11.35;;;;;;;27.48;56.16;101779.53;5090690;28;20020;-68
2023/08/11 10:57:24;;;;;;;16.60;11.07;;;;;;;27.51;57.35;101783.59;5092343;28;20032;-68
2023/08/11 10:59:50;;;;;;;17.35;10.98;;;;;;;27.54;56.85;101783.59;5092175;28;20089;-67